Flight Track Log - Related Links

Times and Time Zones

All times are in EDT time to prevent confusion due to time zone crossing. See the TRS1140 flight status page for this flight to view local times or setup timezone preferences in your user account.

Time Position Orientation Groundspeed Altitude Reporting Facility
EDT Latitude Longitude Course Direction KTS MPH feet Rate Location/Type
Thu 07:50:15 PM 26.6674 -81.7674 222° Southwest  Level FlightAware Approximate
Thu 07:51:38 PM 26.5342 -81.8997 348° North 275 316 6,300  Level Miami Center
Thu 07:52:38 PM 26.6294 -81.9222 North 267 307 10,000 3,050 Climbing Miami Center
Thu 07:53:38 PM 26.7111 -81.9142 19° North 289 333 12,400 3,100 Climbing Miami Center
Thu 07:54:38 PM 26.8086 -81.8764 25° Northeast 312 359 16,200 3,150 Climbing Miami Center
Thu 07:55:38 PM 26.8978 -81.8292 356° North 331 381 18,700 1,900 Climbing Miami Center
Thu 07:56:38 PM 26.9997 -81.8381 351° North 339 390 20,000 1,200 Climbing Miami Center
Thu 07:57:38 PM 27.1036 -81.8567 352° North 385 443 21,100 1,600 Climbing Miami Center
Thu 07:58:38 PM 27.2406 -81.8789 351° North 443 510 23,200 1,950 Climbing Miami Center
Thu 07:59:38 PM 27.3669 -81.9006 351° North 466 536 25,000 1,600 Climbing Miami Center
Thu 08:00:38 PM 27.5019 -81.9253 351° North 471 542 26,400 1,700 Climbing Miami Center
Thu 08:01:38 PM 27.6222 -81.9469 351° North 480 552 28,400 1,220 Climbing Miami Center
Thu 08:03:35 PM 27.8903 -81.9956 345° North 477 549 30,000 1,254 Climbing Jacksonville Center
Thu 08:04:35 PM 28.0136 -82.0322 331° Northwest 467 537 32,100 1,650 Climbing Jacksonville Center
Thu 08:05:35 PM 28.1225 -82.1019 331° Northwest 450 518 33,300 1,450 Climbing Jacksonville Center
Thu 08:06:35 PM 28.2333 -82.1717 330° Northwest 450 518 35,000 1,450 Climbing Jacksonville Center
Thu 08:07:35 PM 28.3403 -82.2417 327° Northwest 450 518 36,200 1,200 Climbing Jacksonville Center
Thu 08:08:35 PM 28.4450 -82.3189 330° Northwest 450 518 37,400 900 Climbing Jacksonville Center
Thu 08:09:35 PM 28.5539 -82.3917 328° Northwest 450 518 38,000 300 Climbing Jacksonville Center
Thu 08:10:35 PM 28.6606 -82.4667 329° Northwest 450 518 38,000  Level Jacksonville Center
Thu 08:11:35 PM 28.7631 -82.5372 327° Northwest 444 511 38,000  Level Jacksonville Center
Thu 08:12:35 PM 28.8656 -82.6128 328° Northwest 439 505 38,000  Level Jacksonville Center
Thu 08:13:35 PM 28.9700 -82.6861 328° Northwest 434 499 38,000  Level Jacksonville Center
Thu 08:14:35 PM 29.0722 -82.7594 328° Northwest 434 499 38,000  Level Jacksonville Center
Thu 08:15:35 PM 29.1767 -82.8331 328° Northwest 434 499 38,000  Level Jacksonville Center
Thu 08:16:35 PM 29.2792 -82.9069 329° Northwest 434 499 38,000  Level Jacksonville Center
Thu 08:17:35 PM 29.3833 -82.9783 327° Northwest 434 499 38,000  Level Jacksonville Center
Thu 08:18:35 PM 29.4836 -83.0525 328° Northwest 434 499 38,000  Level Jacksonville Center
Thu 08:19:35 PM 29.5878 -83.1267 328° Northwest 434 499 38,000  Level Jacksonville Center
Thu 08:20:35 PM 29.6900 -83.2011 327° Northwest 439 505 38,000  Level Jacksonville Center
Thu 08:21:35 PM 29.7961 -83.2803 329° Northwest 434 499 38,000  Level Jacksonville Center
Thu 08:22:35 PM 29.8983 -83.3525 329° Northwest 439 505 38,000  Level Jacksonville Center
Thu 08:23:35 PM 30.0003 -83.4225 327° Northwest 434 499 38,000  Level Jacksonville Center
Thu 08:24:35 PM 30.1022 -83.5000 329° Northwest 434 499 38,000  Level Jacksonville Center
Thu 08:25:35 PM 30.2061 -83.5728 328° Northwest 434 499 38,000  Level Jacksonville Center
Thu 08:26:35 PM 30.3081 -83.6456 327° Northwest 434 499 38,000  Level Jacksonville Center
Thu 08:27:35 PM 30.4100 -83.7211 327° Northwest 434 499 38,000  Level Jacksonville Center
Thu 08:28:35 PM 30.5117 -83.7969 328° Northwest 434 499 38,000  Level Jacksonville Center
Thu 08:29:35 PM 30.6114 -83.8700 328° Northwest 429 494 38,000  Level Jacksonville Center
Thu 08:30:35 PM 30.7153 -83.9461 328° Northwest 434 499 38,000  Level Jacksonville Center
Thu 08:31:35 PM 30.8189 -84.0222 327° Northwest 439 505 38,000  Level Jacksonville Center
Thu 08:32:35 PM 30.9206 -84.0986 327° Northwest 439 505 38,000  Level Jacksonville Center
Thu 08:33:35 PM 31.0222 -84.1750 327° Northwest 432 497 38,000  Level Jacksonville Center
Thu 08:35:16 PM 31.1828 -84.2961 327° Northwest 436 502 38,000 -484 Level Atlanta Center
Thu 08:36:16 PM 31.2828 -84.3717 328° Northwest 436 502 36,700 -1,650 Descending Atlanta Center
Thu 08:37:16 PM 31.3869 -84.4475 327° Northwest 436 502 34,700 -1,350 Descending Atlanta Center
Thu 08:38:16 PM 31.4889 -84.5258 328° Northwest 436 502 34,000 -350 Descending Atlanta Center
Thu 08:39:16 PM 31.6014 -84.6094 328° Northwest 436 502 34,000 -500 Level Atlanta Center
Thu 08:40:16 PM 31.7053 -84.6858 327° Northwest 436 502 33,000 -1,500 Descending Atlanta Center
Thu 08:41:16 PM 31.8092 -84.7647 334° Northwest 436 502 31,000 -2,150 Descending Atlanta Center
Thu 08:42:16 PM 31.9214 -84.8292 344° North 436 502 28,700 -2,400 Descending Atlanta Center
Thu 08:43:16 PM 32.0444 -84.8694 343° North 441 507 26,200 -2,500 Descending Atlanta Center
Thu 08:44:16 PM 32.1672 -84.9125 347° North 454 522 23,700 -2,300 Descending Atlanta Center
Thu 08:45:16 PM 32.2775 -84.9428 344° North 454 522 21,600 -2,050 Descending Atlanta Center
Thu 08:46:16 PM 32.3942 -84.9833 345° North 444 511 19,600 -2,050 Descending Atlanta Center
Thu 08:47:16 PM 32.5044 -85.0192 344° North 421 484 17,500 -1,700 Descending Atlanta Center
Thu 08:48:16 PM 32.6108 -85.0547 344° North 399 459 16,200 -1,150 Descending Atlanta Center
Thu 08:49:16 PM 32.7064 -85.0881 343° North 364 419 15,200 -1,000 Descending Atlanta Center
Thu 08:50:16 PM 32.7981 -85.1211 North 344 396 14,200 -1,000 Descending Atlanta Center
Thu 08:51:16 PM 32.8919 -85.1175 12° North 333 383 13,200 -1,000 Descending Atlanta Center
Thu 08:52:16 PM 32.9842 -85.0939 15° North 333 383 12,200 -650 Descending Atlanta Center
Thu 08:53:16 PM 33.0742 -85.0650 15° North 333 383 11,900 -150 Descending Atlanta Center
Thu 08:54:16 PM 33.1556 -85.0389 36° Northeast 315 362 11,900 -600 Level Atlanta Center
Thu 08:55:16 PM 33.2208 -84.9825 47° Northeast 291 335 10,700 -1,350 Descending Atlanta Center
Thu 08:56:16 PM 33.2819 -84.9036 49° Northeast 291 335 9,200 -1,400 Descending Atlanta Center
Thu 08:57:16 PM 33.3347 -84.8319 16° North 291 335 7,900 -950 Descending Atlanta Center
Thu 08:58:16 PM 33.4058 -84.8078 355° North 262 302 7,300 -1,350 Descending Atlanta Center
Thu 08:59:16 PM 33.4828 -84.8158 360° North 257 296 5,200 -1,900 Descending Atlanta Center
Thu 09:00:16 PM 33.5517 -84.8164 39° Northeast 252 290 3,500 -850 Descending Atlanta Center
Thu 09:01:16 PM 33.5981 -84.7719 78° East 207 238 3,500  Level Atlanta Center
Thu 09:02:51 PM 33.6167 -84.6667 90° East 215 247 3,500 -77 Level Atlanta TRACON
Thu 09:03:51 PM 33.6167 -84.5833 90° East 203 234 3,300 -550 Descending Atlanta TRACON
Thu 09:04:51 PM 33.6167 -84.5333 90° East 160 184 2,400 -793 Descending Atlanta TRACON
Thu 09:05:52 PM 33.6167 -84.4833 90° East 133 153 1,700 -689 Descending Atlanta TRACON

Login

Don't have an account? Register now (free) for customized features, flight alerts, and more!